Paradise, Michigan
Current Conditions -  °F | °C
As of 3:10 AM on Friday 28 Nov 2014 (Local Time) from CYAM Reporting Station
Ice Pellets Ice Pellets  
Wind Chill: -2°   Ceiling: 24000
Heat Index: -2°   Visibility: 15mi
Dew Point: -6°   Wind: 2mph
Humidity: 85%   Direction: 50°NE
Pressure: 30.29"   Gusts: NA
Location:  46.63°N, 85.04°W
Report Text: CYAM 280810Z 05002KT 15SM IC FEW016 SCT200 BKN240 M19/M21 A3029 RMK SC1CI3CI3 SLP274
Loading
Personal Weather Stations






























Interactive Weather Map New forecast layout! Learn more

10-Day Weather Forecast

Advertisements
Track Severe Weather on mobile